sensor_id;sensor_type;location;lat;lon;timestamp;P1;durP1;ratioP1;P2;durP2;ratioP2
27618;SDS011;15039;50.830;4.730;2023-06-26T00:00:02;4.25;;;2.65;;
27618;SDS011;15039;50.830;4.730;2023-06-26T00:02:30;3.38;;;2.80;;
27618;SDS011;15039;50.830;4.730;2023-06-26T00:04:57;3.53;;;3.00;;
27618;SDS011;15039;50.830;4.730;2023-06-26T00:07:23;4.53;;;2.97;;
27618;SDS011;15039;50.830;4.730;2023-06-26T00:09:50;4.50;;;3.25;;
27618;SDS011;15039;50.830;4.730;2023-06-26T00:12:16;5.20;;;3.20;;
27618;SDS011;15039;50.830;4.730;2023-06-26T00:14:41;5.05;;;2.92;;
27618;SDS011;15039;50.830;4.730;2023-06-26T00:17:07;3.30;;;2.58;;
27618;SDS011;15039;50.830;4.730;2023-06-26T00:19:32;2.45;;;2.25;;
27618;SDS011;15039;50.830;4.730;2023-06-26T00:21:58;4.95;;;3.03;;
27618;SDS011;15039;50.830;4.730;2023-06-26T00:24:23;5.97;;;3.03;;
27618;SDS011;15039;50.830;4.730;2023-06-26T00:26:49;4.22;;;2.85;;
27618;SDS011;15039;50.830;4.730;2023-06-26T00:29:15;3.45;;;2.72;;
27618;SDS011;15039;50.830;4.730;2023-06-26T00:31:41;3.03;;;2.72;;
27618;SDS011;15039;50.830;4.730;2023-06-26T00:34:07;8.30;;;2.90;;
27618;SDS011;15039;50.830;4.730;2023-06-26T00:36:32;8.07;;;2.92;;
27618;SDS011;15039;50.830;4.730;2023-06-26T00:38:58;5.95;;;2.75;;
27618;SDS011;15039;50.830;4.730;2023-06-26T00:41:24;6.95;;;2.92;;
27618;SDS011;15039;50.830;4.730;2023-06-26T00:43:50;6.32;;;2.90;;
27618;SDS011;15039;50.830;4.730;2023-06-26T00:46:16;5.65;;;2.90;;
27618;SDS011;15039;50.830;4.730;2023-06-26T00:48:42;3.33;;;3.03;;
27618;SDS011;15039;50.830;4.730;2023-06-26T00:51:09;3.63;;;3.13;;
27618;SDS011;15039;50.830;4.730;2023-06-26T00:53:35;2.85;;;2.45;;
27618;SDS011;15039;50.830;4.730;2023-06-26T00:56:02;4.32;;;2.83;;
27618;SDS011;15039;50.830;4.730;2023-06-26T00:58:28;2.88;;;2.67;;
27618;SDS011;15039;50.830;4.730;2023-06-26T01:00:53;4.28;;;2.40;;
27618;SDS011;15039;50.830;4.730;2023-06-26T01:03:20;3.47;;;2.63;;
27618;SDS011;15039;50.830;4.730;2023-06-26T01:05:47;6.47;;;2.40;;
27618;SDS011;15039;50.830;4.730;2023-06-26T01:08:15;3.75;;;2.42;;
27618;SDS011;15039;50.830;4.730;2023-06-26T01:10:41;3.42;;;2.10;;
27618;SDS011;15039;50.830;4.730;2023-06-26T01:13:07;3.70;;;2.50;;
27618;SDS011;15039;50.830;4.730;2023-06-26T01:15:33;3.47;;;2.30;;
27618;SDS011;15039;50.830;4.730;2023-06-26T01:17:59;3.67;;;2.53;;
27618;SDS011;15039;50.830;4.730;2023-06-26T01:20:32;4.00;;;2.53;;
27618;SDS011;15039;50.830;4.730;2023-06-26T01:23:15;3.33;;;2.33;;
27618;SDS011;15039;50.830;4.730;2023-06-26T01:28:48;6.13;;;2.55;;
27618;SDS011;15039;50.830;4.730;2023-06-26T01:31:16;3.35;;;2.28;;
27618;SDS011;15039;50.830;4.730;2023-06-26T01:33:42;3.90;;;2.60;;
27618;SDS011;15039;50.830;4.730;2023-06-26T01:36:09;3.95;;;2.42;;
27618;SDS011;15039;50.830;4.730;2023-06-26T01:38:35;3.40;;;2.13;;
27618;SDS011;15039;50.830;4.730;2023-06-26T01:41:01;3.45;;;2.42;;
27618;SDS011;15039;50.830;4.730;2023-06-26T01:43:30;3.72;;;2.45;;
27618;SDS011;15039;50.830;4.730;2023-06-26T01:46:23;3.05;;;2.38;;
27618;SDS011;15039;50.830;4.730;2023-06-26T01:52:12;3.15;;;2.33;;
27618;SDS011;15039;50.830;4.730;2023-06-26T01:54:28;2.58;;;1.90;;
27618;SDS011;15039;50.830;4.730;2023-06-26T01:56:58;3.80;;;1.83;;
27618;SDS011;15039;50.830;4.730;2023-06-26T01:59:25;4.78;;;2.25;;
27618;SDS011;15039;50.830;4.730;2023-06-26T02:01:53;5.33;;;2.40;;
27618;SDS011;15039;50.830;4.730;2023-06-26T02:04:19;3.25;;;2.00;;
27618;SDS011;15039;50.830;4.730;2023-06-26T02:06:45;4.15;;;1.90;;
27618;SDS011;15039;50.830;4.730;2023-06-26T02:09:10;4.38;;;2.15;;
27618;SDS011;15039;50.830;4.730;2023-06-26T02:11:36;3.60;;;2.28;;
27618;SDS011;15039;50.830;4.730;2023-06-26T02:14:02;2.10;;;1.90;;
27618;SDS011;15039;50.830;4.730;2023-06-26T02:16:28;3.42;;;2.03;;
27618;SDS011;15039;50.830;4.730;2023-06-26T02:18:54;2.67;;;1.67;;
27618;SDS011;15039;50.830;4.730;2023-06-26T02:21:20;3.10;;;2.63;;
27618;SDS011;15039;50.830;4.730;2023-06-26T02:23:45;4.03;;;2.00;;
27618;SDS011;15039;50.830;4.730;2023-06-26T02:26:11;2.97;;;2.10;;
27618;SDS011;15039;50.830;4.730;2023-06-26T02:28:36;6.15;;;2.42;;
27618;SDS011;15039;50.830;4.730;2023-06-26T02:31:02;3.25;;;1.90;;
27618;SDS011;15039;50.830;4.730;2023-06-26T02:33:28;2.70;;;1.95;;
27618;SDS011;15039;50.830;4.730;2023-06-26T02:35:53;2.65;;;1.90;;
27618;SDS011;15039;50.830;4.730;2023-06-26T02:38:19;3.65;;;2.40;;
27618;SDS011;15039;50.830;4.730;2023-06-26T02:40:44;2.50;;;2.05;;
27618;SDS011;15039;50.830;4.730;2023-06-26T02:43:10;3.22;;;2.28;;
27618;SDS011;15039;50.830;4.730;2023-06-26T02:45:35;3.03;;;1.85;;
27618;SDS011;15039;50.830;4.730;2023-06-26T02:48:01;4.35;;;2.25;;
27618;SDS011;15039;50.830;4.730;2023-06-26T02:50:27;4.93;;;2.20;;
27618;SDS011;15039;50.830;4.730;2023-06-26T02:52:52;3.85;;;1.88;;
27618;SDS011;15039;50.830;4.730;2023-06-26T02:55:18;3.20;;;2.10;;
27618;SDS011;15039;50.830;4.730;2023-06-26T02:57:45;5.07;;;2.17;;
27618;SDS011;15039;50.830;4.730;2023-06-26T03:00:11;3.55;;;2.08;;
27618;SDS011;15039;50.830;4.730;2023-06-26T03:02:38;4.85;;;2.67;;
27618;SDS011;15039;50.830;4.730;2023-06-26T03:05:03;4.88;;;1.80;;
27618;SDS011;15039;50.830;4.730;2023-06-26T03:07:29;6.03;;;2.50;;
27618;SDS011;15039;50.830;4.730;2023-06-26T03:09:55;5.50;;;2.53;;
27618;SDS011;15039;50.830;4.730;2023-06-26T03:12:21;5.30;;;2.30;;
27618;SDS011;15039;50.830;4.730;2023-06-26T03:14:46;5.00;;;2.53;;
27618;SDS011;15039;50.830;4.730;2023-06-26T03:17:12;2.92;;;2.00;;
27618;SDS011;15039;50.830;4.730;2023-06-26T03:19:38;6.68;;;2.50;;
27618;SDS011;15039;50.830;4.730;2023-06-26T03:22:03;8.48;;;2.33;;
27618;SDS011;15039;50.830;4.730;2023-06-26T03:24:29;5.22;;;2.38;;
27618;SDS011;15039;50.830;4.730;2023-06-26T03:26:55;5.22;;;2.33;;
27618;SDS011;15039;50.830;4.730;2023-06-26T03:29:20;6.13;;;2.70;;
27618;SDS011;15039;50.830;4.730;2023-06-26T03:31:46;4.63;;;2.83;;
27618;SDS011;15039;50.830;4.730;2023-06-26T03:34:12;5.40;;;2.63;;
27618;SDS011;15039;50.830;4.730;2023-06-26T03:36:37;3.45;;;2.25;;
27618;SDS011;15039;50.830;4.730;2023-06-26T03:39:03;6.32;;;2.35;;
27618;SDS011;15039;50.830;4.730;2023-06-26T03:41:29;4.15;;;2.25;;
27618;SDS011;15039;50.830;4.730;2023-06-26T03:43:55;4.20;;;2.20;;
27618;SDS011;15039;50.830;4.730;2023-06-26T03:46:21;4.72;;;2.70;;
27618;SDS011;15039;50.830;4.730;2023-06-26T03:48:47;8.93;;;3.30;;
27618;SDS011;15039;50.830;4.730;2023-06-26T03:51:13;4.85;;;2.45;;
27618;SDS011;15039;50.830;4.730;2023-06-26T03:53:39;4.30;;;2.40;;
27618;SDS011;15039;50.830;4.730;2023-06-26T03:56:05;10.70;;;2.70;;
27618;SDS011;15039;50.830;4.730;2023-06-26T03:58:30;7.07;;;2.67;;
27618;SDS011;15039;50.830;4.730;2023-06-26T04:00:56;6.00;;;2.53;;
27618;SDS011;15039;50.830;4.730;2023-06-26T04:03:22;6.20;;;2.88;;
27618;SDS011;15039;50.830;4.730;2023-06-26T04:05:48;6.60;;;2.40;;
27618;SDS011;15039;50.830;4.730;2023-06-26T04:08:14;7.68;;;2.40;;
27618;SDS011;15039;50.830;4.730;2023-06-26T04:10:39;3.38;;;2.20;;
27618;SDS011;15039;50.830;4.730;2023-06-26T04:13:05;6.47;;;2.63;;
27618;SDS011;15039;50.830;4.730;2023-06-26T04:15:31;7.47;;;3.00;;
27618;SDS011;15039;50.830;4.730;2023-06-26T04:17:56;5.00;;;2.72;;
27618;SDS011;15039;50.830;4.730;2023-06-26T04:20:22;6.88;;;3.28;;
27618;SDS011;15039;50.830;4.730;2023-06-26T04:22:47;5.10;;;2.60;;
27618;SDS011;15039;50.830;4.730;2023-06-26T04:25:13;7.05;;;3.20;;
27618;SDS011;15039;50.830;4.730;2023-06-26T04:27:39;8.18;;;2.83;;
27618;SDS011;15039;50.830;4.730;2023-06-26T04:30:05;8.30;;;2.92;;
27618;SDS011;15039;50.830;4.730;2023-06-26T04:32:31;10.93;;;3.17;;
27618;SDS011;15039;50.830;4.730;2023-06-26T04:34:57;7.38;;;2.92;;
27618;SDS011;15039;50.830;4.730;2023-06-26T04:37:22;5.35;;;2.65;;
27618;SDS011;15039;50.830;4.730;2023-06-26T04:39:49;8.32;;;2.58;;
27618;SDS011;15039;50.830;4.730;2023-06-26T04:42:15;10.30;;;3.03;;
27618;SDS011;15039;50.830;4.730;2023-06-26T04:44:40;4.15;;;2.55;;
27618;SDS011;15039;50.830;4.730;2023-06-26T04:47:06;6.95;;;2.55;;
27618;SDS011;15039;50.830;4.730;2023-06-26T04:49:33;7.43;;;2.58;;
27618;SDS011;15039;50.830;4.730;2023-06-26T04:51:58;6.13;;;2.47;;
27618;SDS011;15039;50.830;4.730;2023-06-26T04:54:25;5.25;;;2.28;;
27618;SDS011;15039;50.830;4.730;2023-06-26T04:56:51;3.92;;;2.28;;
27618;SDS011;15039;50.830;4.730;2023-06-26T04:59:16;7.15;;;2.85;;
27618;SDS011;15039;50.830;4.730;2023-06-26T05:01:42;8.48;;;2.92;;
27618;SDS011;15039;50.830;4.730;2023-06-26T05:04:13;5.35;;;3.03;;
27618;SDS011;15039;50.830;4.730;2023-06-26T05:06:40;6.32;;;2.78;;
27618;SDS011;15039;50.830;4.730;2023-06-26T05:09:05;7.68;;;2.80;;
27618;SDS011;15039;50.830;4.730;2023-06-26T05:11:31;6.97;;;2.50;;
27618;SDS011;15039;50.830;4.730;2023-06-26T05:13:56;5.20;;;2.33;;
27618;SDS011;15039;50.830;4.730;2023-06-26T05:16:22;9.98;;;3.00;;
27618;SDS011;15039;50.830;4.730;2023-06-26T05:18:48;6.80;;;2.65;;
27618;SDS011;15039;50.830;4.730;2023-06-26T05:21:13;9.50;;;2.60;;
27618;SDS011;15039;50.830;4.730;2023-06-26T05:23:41;6.80;;;2.90;;
27618;SDS011;15039;50.830;4.730;2023-06-26T05:26:09;7.32;;;2.58;;
27618;SDS011;15039;50.830;4.730;2023-06-26T05:28:36;6.93;;;2.40;;
27618;SDS011;15039;50.830;4.730;2023-06-26T05:31:02;8.75;;;2.63;;
27618;SDS011;15039;50.830;4.730;2023-06-26T05:33:30;5.47;;;2.38;;
27618;SDS011;15039;50.830;4.730;2023-06-26T05:35:56;6.70;;;2.15;;
27618;SDS011;15039;50.830;4.730;2023-06-26T05:38:24;6.25;;;2.25;;
27618;SDS011;15039;50.830;4.730;2023-06-26T05:40:50;5.93;;;2.92;;
27618;SDS011;15039;50.830;4.730;2023-06-26T05:43:16;7.05;;;2.67;;
27618;SDS011;15039;50.830;4.730;2023-06-26T05:45:45;11.98;;;2.92;;
27618;SDS011;15039;50.830;4.730;2023-06-26T05:48:12;8.73;;;2.38;;
27618;SDS011;15039;50.830;4.730;2023-06-26T05:50:37;10.63;;;2.78;;
27618;SDS011;15039;50.830;4.730;2023-06-26T05:53:05;8.73;;;2.22;;
27618;SDS011;15039;50.830;4.730;2023-06-26T05:55:31;5.38;;;2.22;;
27618;SDS011;15039;50.830;4.730;2023-06-26T05:57:58;6.15;;;1.65;;
27618;SDS011;15039;50.830;4.730;2023-06-26T06:00:27;6.50;;;2.05;;
27618;SDS011;15039;50.830;4.730;2023-06-26T06:02:53;5.93;;;1.90;;
27618;SDS011;15039;50.830;4.730;2023-06-26T06:05:20;5.07;;;1.95;;
27618;SDS011;15039;50.830;4.730;2023-06-26T06:07:46;5.75;;;1.80;;
27618;SDS011;15039;50.830;4.730;2023-06-26T06:10:12;6.45;;;1.75;;
27618;SDS011;15039;50.830;4.730;2023-06-26T06:12:38;8.00;;;2.30;;
27618;SDS011;15039;50.830;4.730;2023-06-26T06:15:03;5.43;;;1.88;;
27618;SDS011;15039;50.830;4.730;2023-06-26T06:17:30;4.43;;;1.77;;
27618;SDS011;15039;50.830;4.730;2023-06-26T06:19:56;5.93;;;1.75;;
27618;SDS011;15039;50.830;4.730;2023-06-26T06:22:21;5.18;;;2.10;;
27618;SDS011;15039;50.830;4.730;2023-06-26T06:24:48;7.63;;;1.88;;
27618;SDS011;15039;50.830;4.730;2023-06-26T06:27:15;7.53;;;1.73;;
27618;SDS011;15039;50.830;4.730;2023-06-26T06:29:41;4.38;;;1.88;;
27618;SDS011;15039;50.830;4.730;2023-06-26T06:32:07;4.13;;;1.58;;
27618;SDS011;15039;50.830;4.730;2023-06-26T06:34:33;8.30;;;1.95;;
27618;SDS011;15039;50.830;4.730;2023-06-26T06:36:58;4.88;;;1.65;;
27618;SDS011;15039;50.830;4.730;2023-06-26T06:39:24;5.15;;;1.52;;
27618;SDS011;15039;50.830;4.730;2023-06-26T06:41:50;4.13;;;1.70;;
27618;SDS011;15039;50.830;4.730;2023-06-26T06:44:15;5.05;;;1.48;;
27618;SDS011;15039;50.830;4.730;2023-06-26T06:46:41;4.80;;;1.60;;
27618;SDS011;15039;50.830;4.730;2023-06-26T06:49:08;7.05;;;1.60;;
27618;SDS011;15039;50.830;4.730;2023-06-26T06:51:34;5.35;;;1.50;;
27618;SDS011;15039;50.830;4.730;2023-06-26T06:53:59;4.85;;;1.50;;
27618;SDS011;15039;50.830;4.730;2023-06-26T06:56:25;7.00;;;1.90;;
27618;SDS011;15039;50.830;4.730;2023-06-26T06:58:51;6.47;;;1.95;;
27618;SDS011;15039;50.830;4.730;2023-06-26T07:01:17;6.05;;;1.50;;
27618;SDS011;15039;50.830;4.730;2023-06-26T07:03:43;5.07;;;1.67;;
27618;SDS011;15039;50.830;4.730;2023-06-26T07:06:08;7.20;;;2.15;;
27618;SDS011;15039;50.830;4.730;2023-06-26T07:08:34;5.20;;;1.92;;
27618;SDS011;15039;50.830;4.730;2023-06-26T07:11:01;7.80;;;1.80;;
27618;SDS011;15039;50.830;4.730;2023-06-26T07:13:28;4.65;;;1.33;;
27618;SDS011;15039;50.830;4.730;2023-06-26T07:15:53;6.88;;;1.58;;
27618;SDS011;15039;50.830;4.730;2023-06-26T07:18:19;5.63;;;1.77;;
27618;SDS011;15039;50.830;4.730;2023-06-26T07:20:44;6.82;;;1.83;;
27618;SDS011;15039;50.830;4.730;2023-06-26T07:23:10;4.40;;;1.38;;
27618;SDS011;15039;50.830;4.730;2023-06-26T07:25:36;3.58;;;1.35;;
27618;SDS011;15039;50.830;4.730;2023-06-26T07:28:02;4.25;;;1.40;;
27618;SDS011;15039;50.830;4.730;2023-06-26T07:30:28;5.80;;;1.55;;
27618;SDS011;15039;50.830;4.730;2023-06-26T07:32:53;4.45;;;1.50;;
27618;SDS011;15039;50.830;4.730;2023-06-26T07:35:19;3.97;;;1.50;;
27618;SDS011;15039;50.830;4.730;2023-06-26T07:37:45;3.60;;;0.90;;
27618;SDS011;15039;50.830;4.730;2023-06-26T07:40:10;6.68;;;1.52;;
27618;SDS011;15039;50.830;4.730;2023-06-26T07:42:36;2.53;;;1.20;;
27618;SDS011;15039;50.830;4.730;2023-06-26T07:45:02;4.05;;;1.70;;
27618;SDS011;15039;50.830;4.730;2023-06-26T07:47:35;5.65;;;2.08;;
27618;SDS011;15039;50.830;4.730;2023-06-26T07:50:01;6.68;;;1.58;;
27618;SDS011;15039;50.830;4.730;2023-06-26T07:52:27;2.67;;;1.42;;
27618;SDS011;15039;50.830;4.730;2023-06-26T07:54:54;6.30;;;1.50;;
27618;SDS011;15039;50.830;4.730;2023-06-26T07:57:19;1.92;;;1.13;;
27618;SDS011;15039;50.830;4.730;2023-06-26T07:59:45;4.75;;;1.27;;
27618;SDS011;15039;50.830;4.730;2023-06-26T08:02:10;3.85;;;1.52;;
27618;SDS011;15039;50.830;4.730;2023-06-26T08:04:36;5.10;;;1.00;;
27618;SDS011;15039;50.830;4.730;2023-06-26T08:07:02;5.65;;;1.52;;
27618;SDS011;15039;50.830;4.730;2023-06-26T08:09:29;5.85;;;1.70;;
27618;SDS011;15039;50.830;4.730;2023-06-26T08:11:55;9.15;;;1.25;;
27618;SDS011;15039;50.830;4.730;2023-06-26T08:14:21;4.97;;;1.30;;
27618;SDS011;15039;50.830;4.730;2023-06-26T08:16:47;4.15;;;1.15;;
27618;SDS011;15039;50.830;4.730;2023-06-26T08:19:13;6.55;;;1.10;;
27618;SDS011;15039;50.830;4.730;2023-06-26T08:21:40;4.75;;;1.42;;
27618;SDS011;15039;50.830;4.730;2023-06-26T08:24:06;3.83;;;1.67;;
27618;SDS011;15039;50.830;4.730;2023-06-26T08:26:32;4.85;;;1.25;;
27618;SDS011;15039;50.830;4.730;2023-06-26T08:28:58;5.15;;;1.73;;
27618;SDS011;15039;50.830;4.730;2023-06-26T08:31:24;4.47;;;1.00;;
27618;SDS011;15039;50.830;4.730;2023-06-26T08:33:50;3.15;;;1.27;;
27618;SDS011;15039;50.830;4.730;2023-06-26T08:36:15;4.80;;;1.42;;
27618;SDS011;15039;50.830;4.730;2023-06-26T08:38:41;5.50;;;1.17;;
27618;SDS011;15039;50.830;4.730;2023-06-26T08:41:07;4.05;;;1.02;;
27618;SDS011;15039;50.830;4.730;2023-06-26T08:43:33;5.88;;;1.52;;
27618;SDS011;15039;50.830;4.730;2023-06-26T08:45:59;5.82;;;1.13;;
27618;SDS011;15039;50.830;4.730;2023-06-26T08:48:25;3.67;;;1.02;;
27618;SDS011;15039;50.830;4.730;2023-06-26T08:50:54;4.93;;;1.08;;
27618;SDS011;15039;50.830;4.730;2023-06-26T08:56:23;5.05;;;0.88;;
27618;SDS011;15039;50.830;4.730;2023-06-26T08:58:52;3.63;;;0.93;;
27618;SDS011;15039;50.830;4.730;2023-06-26T09:01:18;2.30;;;1.15;;
27618;SDS011;15039;50.830;4.730;2023-06-26T09:03:45;2.83;;;1.17;;
27618;SDS011;15039;50.830;4.730;2023-06-26T09:06:10;4.10;;;1.10;;
27618;SDS011;15039;50.830;4.730;2023-06-26T09:08:36;4.85;;;1.08;;
27618;SDS011;15039;50.830;4.730;2023-06-26T09:11:02;4.25;;;1.10;;
27618;SDS011;15039;50.830;4.730;2023-06-26T09:13:31;1.27;;;0.82;;
27618;SDS011;15039;50.830;4.730;2023-06-26T09:15:56;4.63;;;1.10;;
27618;SDS011;15039;50.830;4.730;2023-06-26T09:18:23;5.45;;;1.00;;
27618;SDS011;15039;50.830;4.730;2023-06-26T09:20:48;4.93;;;1.10;;
27618;SDS011;15039;50.830;4.730;2023-06-26T09:23:15;2.38;;;1.05;;
27618;SDS011;15039;50.830;4.730;2023-06-26T09:25:41;2.60;;;0.98;;
27618;SDS011;15039;50.830;4.730;2023-06-26T09:28:08;7.40;;;1.00;;
27618;SDS011;15039;50.830;4.730;2023-06-26T09:30:34;3.17;;;1.15;;
27618;SDS011;15039;50.830;4.730;2023-06-26T09:33:13;3.17;;;0.98;;
27618;SDS011;15039;50.830;4.730;2023-06-26T09:35:44;3.47;;;0.88;;
27618;SDS011;15039;50.830;4.730;2023-06-26T09:38:11;2.45;;;1.10;;
27618;SDS011;15039;50.830;4.730;2023-06-26T09:40:37;1.63;;;0.80;;
27618;SDS011;15039;50.830;4.730;2023-06-26T09:43:04;4.20;;;0.75;;
27618;SDS011;15039;50.830;4.730;2023-06-26T09:45:31;3.70;;;0.75;;
27618;SDS011;15039;50.830;4.730;2023-06-26T09:48:03;2.80;;;1.02;;
27618;SDS011;15039;50.830;4.730;2023-06-26T09:50:30;2.25;;;1.02;;
27618;SDS011;15039;50.830;4.730;2023-06-26T09:53:13;5.78;;;0.90;;
27618;SDS011;15039;50.830;4.730;2023-06-26T09:55:43;2.95;;;0.93;;
27618;SDS011;15039;50.830;4.730;2023-06-26T09:58:15;3.22;;;1.10;;
27618;SDS011;15039;50.830;4.730;2023-06-26T10:00:44;10.45;;;1.58;;
27618;SDS011;15039;50.830;4.730;2023-06-26T10:03:10;4.50;;;0.88;;
27618;SDS011;15039;50.830;4.730;2023-06-26T10:05:37;1.80;;;0.80;;
27618;SDS011;15039;50.830;4.730;2023-06-26T10:08:04;1.77;;;0.77;;
27618;SDS011;15039;50.830;4.730;2023-06-26T10:10:30;3.00;;;1.27;;
27618;SDS011;15039;50.830;4.730;2023-06-26T10:13:04;3.63;;;0.98;;
27618;SDS011;15039;50.830;4.730;2023-06-26T10:15:36;2.60;;;0.80;;
27618;SDS011;15039;50.830;4.730;2023-06-26T10:18:02;2.47;;;1.20;;
27618;SDS011;15039;50.830;4.730;2023-06-26T10:20:29;1.13;;;0.90;;
27618;SDS011;15039;50.830;4.730;2023-06-26T10:22:55;6.18;;;1.20;;
27618;SDS011;15039;50.830;4.730;2023-06-26T10:25:25;2.90;;;1.00;;
27618;SDS011;15039;50.830;4.730;2023-06-26T10:27:55;1.83;;;0.88;;
27618;SDS011;15039;50.830;4.730;2023-06-26T10:30:27;2.65;;;1.02;;
27618;SDS011;15039;50.830;4.730;2023-06-26T10:32:57;3.47;;;1.02;;
27618;SDS011;15039;50.830;4.730;2023-06-26T10:35:24;3.05;;;1.10;;
27618;SDS011;15039;50.830;4.730;2023-06-26T10:37:51;2.17;;;1.20;;
27618;SDS011;15039;50.830;4.730;2023-06-26T10:40:26;1.77;;;0.85;;
27618;SDS011;15039;50.830;4.730;2023-06-26T10:43:06;3.10;;;1.10;;
27618;SDS011;15039;50.830;4.730;2023-06-26T10:45:35;4.57;;;1.20;;
27618;SDS011;15039;50.830;4.730;2023-06-26T10:48:02;3.45;;;1.02;;
27618;SDS011;15039;50.830;4.730;2023-06-26T10:50:30;2.83;;;0.93;;
27618;SDS011;15039;50.830;4.730;2023-06-26T10:58:31;4.68;;;0.95;;
27618;SDS011;15039;50.830;4.730;2023-06-26T11:06:29;2.88;;;0.90;;
27618;SDS011;15039;50.830;4.730;2023-06-26T11:14:17;1.75;;;0.98;;
27618;SDS011;15039;50.830;4.730;2023-06-26T11:16:43;3.25;;;1.00;;
27618;SDS011;15039;50.830;4.730;2023-06-26T11:19:09;3.75;;;1.08;;
27618;SDS011;15039;50.830;4.730;2023-06-26T11:21:38;3.20;;;1.00;;
27618;SDS011;15039;50.830;4.730;2023-06-26T11:24:08;3.25;;;1.33;;
27618;SDS011;15039;50.830;4.730;2023-06-26T11:26:41;3.22;;;0.93;;
27618;SDS011;15039;50.830;4.730;2023-06-26T11:29:08;3.13;;;1.23;;
27618;SDS011;15039;50.830;4.730;2023-06-26T11:31:35;3.55;;;1.40;;
27618;SDS011;15039;50.830;4.730;2023-06-26T11:34:08;1.73;;;0.90;;
27618;SDS011;15039;50.830;4.730;2023-06-26T11:36:36;4.07;;;1.55;;
27618;SDS011;15039;50.830;4.730;2023-06-26T11:39:07;3.90;;;1.10;;
27618;SDS011;15039;50.830;4.730;2023-06-26T11:41:34;3.10;;;1.40;;
27618;SDS011;15039;50.830;4.730;2023-06-26T11:44:01;4.22;;;0.80;;
27618;SDS011;15039;50.830;4.730;2023-06-26T11:46:27;4.25;;;1.20;;
27618;SDS011;15039;50.830;4.730;2023-06-26T11:48:53;5.03;;;0.90;;
27618;SDS011;15039;50.830;4.730;2023-06-26T11:51:20;1.80;;;1.00;;
27618;SDS011;15039;50.830;4.730;2023-06-26T11:53:46;2.85;;;1.02;;
27618;SDS011;15039;50.830;4.730;2023-06-26T11:56:16;3.20;;;1.15;;
27618;SDS011;15039;50.830;4.730;2023-06-26T11:58:54;2.72;;;1.00;;
27618;SDS011;15039;50.830;4.730;2023-06-26T12:01:21;3.13;;;1.02;;
27618;SDS011;15039;50.830;4.730;2023-06-26T12:03:48;4.13;;;1.30;;
27618;SDS011;15039;50.830;4.730;2023-06-26T12:06:14;7.55;;;1.10;;
27618;SDS011;15039;50.830;4.730;2023-06-26T12:08:41;2.67;;;0.98;;
27618;SDS011;15039;50.830;4.730;2023-06-26T12:11:07;3.20;;;0.85;;
27618;SDS011;15039;50.830;4.730;2023-06-26T12:13:33;2.28;;;1.67;;
27618;SDS011;15039;50.830;4.730;2023-06-26T12:15:59;2.50;;;0.93;;
27618;SDS011;15039;50.830;4.730;2023-06-26T12:18:24;7.00;;;1.08;;
27618;SDS011;15039;50.830;4.730;2023-06-26T12:20:51;3.30;;;1.20;;
27618;SDS011;15039;50.830;4.730;2023-06-26T12:23:18;2.78;;;1.17;;
27618;SDS011;15039;50.830;4.730;2023-06-26T12:25:44;4.20;;;1.02;;
27618;SDS011;15039;50.830;4.730;2023-06-26T12:28:15;3.50;;;1.83;;
27618;SDS011;15039;50.830;4.730;2023-06-26T12:30:45;2.70;;;1.02;;
27618;SDS011;15039;50.830;4.730;2023-06-26T12:33:14;2.90;;;1.10;;
27618;SDS011;15039;50.830;4.730;2023-06-26T12:35:41;4.20;;;1.52;;
27618;SDS011;15039;50.830;4.730;2023-06-26T12:38:08;3.55;;;1.17;;
27618;SDS011;15039;50.830;4.730;2023-06-26T12:40:44;3.53;;;1.00;;
27618;SDS011;15039;50.830;4.730;2023-06-26T12:43:11;2.00;;;1.10;;
27618;SDS011;15039;50.830;4.730;2023-06-26T12:45:47;1.42;;;1.10;;
27618;SDS011;15039;50.830;4.730;2023-06-26T12:48:14;9.23;;;1.30;;
27618;SDS011;15039;50.830;4.730;2023-06-26T12:50:45;4.65;;;1.10;;
27618;SDS011;15039;50.830;4.730;2023-06-26T12:53:11;6.00;;;1.20;;
27618;SDS011;15039;50.830;4.730;2023-06-26T12:55:37;9.40;;;1.65;;
27618;SDS011;15039;50.830;4.730;2023-06-26T12:58:02;3.88;;;1.10;;
27618;SDS011;15039;50.830;4.730;2023-06-26T13:00:28;2.72;;;1.02;;
27618;SDS011;15039;50.830;4.730;2023-06-26T13:02:55;1.75;;;0.90;;
27618;SDS011;15039;50.830;4.730;2023-06-26T13:05:21;4.63;;;1.23;;
27618;SDS011;15039;50.830;4.730;2023-06-26T13:07:46;6.00;;;1.30;;
27618;SDS011;15039;50.830;4.730;2023-06-26T13:10:12;2.67;;;1.10;;
27618;SDS011;15039;50.830;4.730;2023-06-26T13:12:38;2.60;;;1.05;;
27618;SDS011;15039;50.830;4.730;2023-06-26T13:15:04;2.65;;;1.00;;
27618;SDS011;15039;50.830;4.730;2023-06-26T13:17:30;6.43;;;1.08;;
27618;SDS011;15039;50.830;4.730;2023-06-26T13:19:56;2.03;;;0.88;;
27618;SDS011;15039;50.830;4.730;2023-06-26T13:22:22;2.08;;;1.05;;
27618;SDS011;15039;50.830;4.730;2023-06-26T13:24:48;2.95;;;0.98;;
27618;SDS011;15039;50.830;4.730;2023-06-26T13:27:14;1.48;;;0.77;;
27618;SDS011;15039;50.830;4.730;2023-06-26T13:29:41;3.50;;;1.08;;
27618;SDS011;15039;50.830;4.730;2023-06-26T13:32:07;3.22;;;1.10;;
27618;SDS011;15039;50.830;4.730;2023-06-26T13:34:33;5.40;;;1.50;;
27618;SDS011;15039;50.830;4.730;2023-06-26T13:36:58;4.05;;;1.13;;
27618;SDS011;15039;50.830;4.730;2023-06-26T13:39:25;1.67;;;0.88;;
27618;SDS011;15039;50.830;4.730;2023-06-26T13:41:50;3.33;;;0.93;;
27618;SDS011;15039;50.830;4.730;2023-06-26T13:44:16;5.05;;;1.58;;
27618;SDS011;15039;50.830;4.730;2023-06-26T13:46:42;2.38;;;1.05;;
27618;SDS011;15039;50.830;4.730;2023-06-26T13:49:08;1.85;;;1.20;;
27618;SDS011;15039;50.830;4.730;2023-06-26T13:51:34;4.22;;;1.15;;
27618;SDS011;15039;50.830;4.730;2023-06-26T13:53:59;1.65;;;0.73;;
27618;SDS011;15039;50.830;4.730;2023-06-26T13:56:25;5.38;;;0.80;;
27618;SDS011;15039;50.830;4.730;2023-06-26T13:58:51;3.55;;;1.08;;
27618;SDS011;15039;50.830;4.730;2023-06-26T14:01:17;3.42;;;1.17;;
27618;SDS011;15039;50.830;4.730;2023-06-26T14:03:42;2.50;;;1.00;;
27618;SDS011;15039;50.830;4.730;2023-06-26T14:06:08;4.07;;;0.75;;
27618;SDS011;15039;50.830;4.730;2023-06-26T14:08:33;7.13;;;1.13;;
27618;SDS011;15039;50.830;4.730;2023-06-26T14:10:59;4.78;;;1.10;;
27618;SDS011;15039;50.830;4.730;2023-06-26T14:13:26;2.08;;;1.00;;
27618;SDS011;15039;50.830;4.730;2023-06-26T14:15:51;4.03;;;0.93;;
27618;SDS011;15039;50.830;4.730;2023-06-26T14:18:17;4.00;;;1.50;;
27618;SDS011;15039;50.830;4.730;2023-06-26T14:20:44;3.15;;;1.08;;
27618;SDS011;15039;50.830;4.730;2023-06-26T14:23:09;9.50;;;1.23;;
27618;SDS011;15039;50.830;4.730;2023-06-26T14:25:35;5.45;;;1.30;;
27618;SDS011;15039;50.830;4.730;2023-06-26T14:28:01;2.55;;;0.90;;
27618;SDS011;15039;50.830;4.730;2023-06-26T14:30:28;6.60;;;1.10;;
27618;SDS011;15039;50.830;4.730;2023-06-26T14:32:54;2.33;;;1.10;;
27618;SDS011;15039;50.830;4.730;2023-06-26T14:35:20;2.05;;;0.95;;
27618;SDS011;15039;50.830;4.730;2023-06-26T14:37:47;5.28;;;1.02;;
27618;SDS011;15039;50.830;4.730;2023-06-26T14:40:13;2.50;;;1.00;;
27618;SDS011;15039;50.830;4.730;2023-06-26T14:42:39;3.42;;;1.20;;
27618;SDS011;15039;50.830;4.730;2023-06-26T14:45:05;4.40;;;1.02;;
27618;SDS011;15039;50.830;4.730;2023-06-26T14:47:31;2.55;;;0.98;;
27618;SDS011;15039;50.830;4.730;2023-06-26T14:49:57;2.20;;;1.00;;
27618;SDS011;15039;50.830;4.730;2023-06-26T14:52:22;4.53;;;0.88;;
27618;SDS011;15039;50.830;4.730;2023-06-26T14:54:48;3.83;;;1.00;;
27618;SDS011;15039;50.830;4.730;2023-06-26T14:57:13;2.65;;;0.80;;
27618;SDS011;15039;50.830;4.730;2023-06-26T14:59:39;3.35;;;1.13;;
27618;SDS011;15039;50.830;4.730;2023-06-26T15:02:05;3.95;;;1.35;;
27618;SDS011;15039;50.830;4.730;2023-06-26T15:04:31;2.35;;;1.00;;
27618;SDS011;15039;50.830;4.730;2023-06-26T15:06:57;2.88;;;1.10;;
27618;SDS011;15039;50.830;4.730;2023-06-26T15:09:24;2.35;;;1.00;;